Tri-City, KS

9:10 PM CST on March 02, 2015 (GMT -0600)
Tri-City | Change Station
CLOSE
Current Station
Airport
Location: Parsons,
Elevation: 899 ft
Nearby Weather Stations

Elev 899 ft 37.33 °N, 95.50 °W | Updated 18 minutes ago

Overcast
Overcast
35 °F
Feels Like 30 °F
N
6
Wind Variable Wind from South

Today
High -- | Low -- °F
--% Chance of Precip.
Yesterday
High -- | Low -- °F
Precip. -- in
6:52 AM 6:16 PM
Waxing Gibbous, 94% visible
Pressure 30.16 in
Visibility 8.0 miles
Clouds Overcast 1300 ft
Windchill 30 °F
Dew Point 30 °F
Humidity 82%
Rainfall 0.00 in
Snow Depth Not available.
UV 0 out of 12
Pollen 6.60 out of 12
Air Quality Not available.
Flu Activity Not available.
METAR KPPF 030252Z AUTO 17005KT 8SM OVC013 02/M01 A3014 RMK AO2 SLP211 T00171011 56023

More Conditions Fewer Conditions

Pressure 30.16 in
Visibility 8.0 miles
Clouds Overcast 1300 ft
Windchill 30 °F
Dew Point 30 °F
Humidity 82%
Rainfall 0.00 in
Snow Depth Not available.
UV 0 out of 12
Pollen 6.60 out of 12
Air Quality Not available.
Flu Activity Not available.
METAR KPPF 030252Z AUTO 17005KT 8SM OVC013 02/M01 A3014 RMK AO2 SLP211 T00171011 56023

More Conditions Fewer Conditions

10-Day Weather Forecast

Almanac

Astronomy

Mar. 02, 2015 Rise Set
Actual Time
Civil Twilight
Nautical Twilight
Astronomical Twilight
Moon
Length of Visible Light
Length of Day
Tomorrow will be .
, % of the Moon is Illuminated

Today's Extremes

State Highs State Lows

Community

WunderPhotos

Upload Photos

1,802,057 photos uploaded!

WunderBlogs® & News

Nearby

Air Quality

  Air Quality AQ Index Pollutant
Not available.

Snow Depth

Station Depth Elevation

Earthquake Activity

City Distance Mag. Time & Date
Minimum magnitude displayed is 2.5.

Coastal Water Temperatures

Place Temperature

Nearby Weather Stations